createdAt,value
2022-08-28T00:00:43.034Z,8.68
2022-08-28T00:03:13.103Z,8.32
2022-08-28T00:05:41.645Z,6.78
2022-08-28T00:08:12.888Z,7.07
2022-08-28T00:10:40.826Z,9.57
2022-08-28T00:13:13.968Z,7.22
2022-08-28T00:15:41.740Z,3.05
2022-08-28T00:18:09.132Z,5.07
2022-08-28T00:20:39.820Z,5.40
2022-08-28T00:23:07.859Z,3.92
2022-08-28T00:25:36.143Z,7.43
2022-08-28T00:28:10.206Z,5.20
2022-08-28T00:30:51.879Z,5.47
2022-08-28T00:33:29.961Z,5.03
2022-08-28T00:35:58.033Z,9.15
2022-08-28T00:38:27.660Z,7.55
2022-08-28T00:40:59.656Z,4.95
2022-08-28T00:43:48.327Z,5.45
2022-08-28T00:46:23.727Z,5.30
2022-08-28T00:48:51.425Z,3.67
2022-08-28T00:51:43.290Z,5.55
2022-08-28T00:54:10.615Z,2.80
2022-08-28T00:56:40.096Z,6.85
2022-08-28T00:59:15.685Z,4.93
2022-08-28T01:01:45.545Z,3.25
2022-08-28T01:04:20.041Z,10.35
2022-08-28T01:06:53.556Z,9.48
2022-08-28T01:09:25.135Z,8.60
2022-08-28T01:11:57.940Z,4.10
2022-08-28T01:14:30.325Z,7.50
2022-08-28T01:16:58.415Z,3.15
2022-08-28T01:19:39.870Z,7.07
2022-08-28T01:22:38.583Z,6.88
2022-08-28T01:25:18.904Z,8.10
2022-08-28T01:27:47.152Z,5.03
2022-08-28T01:30:19.679Z,8.85
2022-08-28T01:32:51.832Z,5.38
2022-08-28T01:35:29.677Z,4.47
2022-08-28T01:37:57.731Z,5.22
2022-08-28T01:40:42.950Z,4.20
2022-08-28T01:43:18.333Z,4.07
2022-08-28T01:45:57.817Z,8.70
2022-08-28T01:48:28.339Z,5.65
2022-08-28T01:50:56.051Z,7.22
2022-08-28T01:53:32.589Z,8.82
2022-08-28T01:56:09.662Z,10.73
2022-08-28T01:58:41.112Z,7.28
2022-08-28T02:01:14.565Z,4.63
2022-08-28T02:03:46.097Z,5.75
2022-08-28T02:06:15.713Z,6.13
2022-08-28T02:08:43.065Z,6.30
2022-08-28T02:11:10.904Z,12.00
2022-08-28T02:13:40.670Z,9.57
2022-08-28T02:16:10.813Z,9.00
2022-08-28T02:18:38.350Z,6.35
2022-08-28T02:21:08.340Z,4.15
2022-08-28T02:23:39.953Z,8.80
2022-08-28T02:26:13.260Z,4.95
2022-08-28T02:28:41.277Z,6.57
2022-08-28T02:31:09.666Z,6.65
2022-08-28T02:33:43.717Z,16.38
2022-08-28T02:36:13.432Z,5.50
2022-08-28T02:38:40.767Z,10.27
2022-08-28T02:41:08.736Z,7.57
2022-08-28T02:43:36.293Z,9.20
2022-08-28T02:46:04.953Z,7.47
2022-08-28T02:48:35.607Z,4.15
2022-08-28T02:51:08.457Z,6.97
2022-08-28T02:53:39.562Z,8.13
2022-08-28T02:56:13.311Z,7.13
2022-08-28T02:58:40.927Z,9.18
2022-08-28T03:01:12.078Z,9.85
2022-08-28T03:03:41.545Z,9.18
2022-08-28T03:06:13.615Z,6.35
2022-08-28T03:08:42.466Z,7.15
2022-08-28T03:11:09.858Z,7.57
2022-08-28T03:13:37.014Z,5.97
2022-08-28T03:16:08.513Z,8.38
2022-08-28T03:18:35.834Z,6.15
2022-08-28T03:21:04.457Z,7.00
2022-08-28T03:23:32.080Z,5.70
2022-08-28T03:26:14.310Z,9.85
2022-08-28T03:28:52.608Z,7.65
2022-08-28T03:31:24.409Z,8.25
2022-08-28T03:33:53.436Z,7.30
2022-08-28T03:36:25.786Z,7.55
2022-08-28T03:38:56.042Z,6.00
2022-08-28T03:41:25.555Z,7.53
2022-08-28T03:43:52.729Z,6.45
2022-08-28T03:46:24.386Z,11.52
2022-08-28T03:48:53.787Z,7.97
2022-08-28T03:51:29.723Z,7.45
2022-08-28T03:54:02.542Z,8.30
2022-08-28T03:56:31.753Z,7.32
2022-08-28T03:59:05.248Z,8.40
2022-08-28T04:01:33.739Z,10.35
2022-08-28T04:04:02.120Z,5.13
2022-08-28T04:06:29.478Z,7.78
2022-08-28T04:08:59.985Z,9.63
2022-08-28T04:11:28.597Z,7.00
2022-08-28T04:13:55.905Z,17.17
2022-08-28T04:16:23.026Z,4.45
2022-08-28T04:18:53.539Z,7.68
2022-08-28T04:21:23.995Z,12.70
2022-08-28T04:23:55.324Z,6.43
2022-08-28T04:26:26.729Z,6.95
2022-08-28T04:28:56.042Z,12.23
2022-08-28T04:31:31.621Z,9.70
2022-08-28T04:34:05.422Z,10.73
2022-08-28T04:36:35.953Z,6.07
2022-08-28T04:39:06.095Z,6.97
2022-08-28T04:41:33.341Z,9.40
2022-08-28T04:44:00.462Z,8.65
2022-08-28T04:46:31.187Z,8.52
2022-08-28T04:48:59.686Z,5.43
2022-08-28T04:51:28.857Z,5.15
2022-08-28T04:53:57.928Z,9.35
2022-08-28T04:56:26.574Z,7.10
2022-08-28T04:58:57.223Z,9.65
2022-08-28T05:01:25.088Z,6.55
2022-08-28T05:04:00.287Z,8.07
2022-08-28T05:06:30.748Z,5.95
2022-08-28T05:09:01.980Z,8.13
2022-08-28T05:11:34.122Z,7.65
2022-08-28T05:14:09.603Z,7.68
2022-08-28T05:16:48.808Z,6.13
2022-08-28T05:19:18.612Z,10.07
2022-08-28T05:21:47.140Z,11.85
2022-08-28T05:24:14.324Z,10.15
2022-08-28T05:26:48.308Z,8.52
2022-08-28T05:29:19.546Z,7.10
2022-08-28T05:31:47.584Z,7.05
2022-08-28T05:34:15.486Z,7.68
2022-08-28T05:36:43.141Z,9.77
2022-08-28T05:39:11.771Z,7.50
2022-08-28T05:41:42.357Z,11.07
2022-08-28T05:44:12.725Z,5.28
2022-08-28T05:46:43.659Z,10.68
2022-08-28T05:49:11.012Z,12.73
2022-08-28T05:51:42.000Z,6.72
2022-08-28T05:54:10.717Z,8.95
2022-08-28T05:56:40.600Z,7.88
2022-08-28T05:59:17.541Z,9.32
2022-08-28T06:01:48.129Z,8.32
2022-08-28T06:04:25.472Z,7.28
2022-08-28T06:06:53.769Z,8.98
2022-08-28T06:09:30.091Z,7.68
2022-08-28T06:12:01.044Z,9.43
2022-08-28T06:14:32.628Z,12.27
2022-08-28T06:17:00.991Z,7.97
2022-08-28T06:19:31.513Z,5.60
2022-08-28T06:22:04.410Z,12.20
2022-08-28T06:24:35.138Z,10.63
2022-08-28T06:27:02.205Z,7.93
2022-08-28T06:29:30.405Z,10.52
2022-08-28T06:32:02.021Z,8.68
2022-08-28T06:34:30.028Z,9.15
2022-08-28T06:36:57.129Z,7.63
2022-08-28T06:39:24.419Z,5.60
2022-08-28T06:41:51.586Z,7.50
2022-08-28T06:44:21.497Z,10.07
2022-08-28T06:46:52.385Z,9.38
2022-08-28T06:49:19.603Z,12.45
2022-08-28T06:51:47.124Z,9.48
2022-08-28T06:54:21.765Z,7.50
2022-08-28T06:56:51.711Z,9.95
2022-08-28T06:59:19.545Z,13.60
2022-08-28T07:01:46.915Z,6.57
2022-08-28T07:04:14.743Z,7.47
2022-08-28T07:06:46.742Z,11.20
2022-08-28T07:09:14.663Z,8.57
2022-08-28T07:11:46.766Z,9.23
2022-08-28T07:14:14.522Z,7.07
2022-08-28T07:16:42.291Z,10.43
2022-08-28T07:19:12.033Z,13.90
2022-08-28T07:21:44.733Z,12.05
2022-08-28T07:24:17.652Z,9.10
2022-08-28T07:26:46.983Z,10.15
2022-08-28T07:29:14.960Z,7.72
2022-08-28T07:31:49.222Z,9.40
2022-08-28T07:34:18.922Z,10.23
2022-08-28T07:36:47.026Z,9.85
2022-08-28T07:39:18.354Z,12.60
2022-08-28T07:41:47.666Z,11.23
2022-08-28T07:44:36.812Z,12.50
2022-08-28T07:49:34.857Z,11.75
2022-08-28T07:52:09.521Z,8.20
2022-08-28T07:54:37.692Z,9.85
2022-08-28T07:57:06.287Z,8.52
2022-08-28T07:59:37.000Z,7.90
2022-08-28T08:02:05.588Z,9.15
2022-08-28T08:04:36.097Z,10.43
2022-08-28T08:07:04.974Z,10.13
2022-08-28T08:09:36.423Z,11.68
2022-08-28T08:12:05.663Z,16.75
2022-08-28T08:14:33.303Z,8.57
2022-08-28T08:17:02.497Z,14.52
2022-08-28T08:19:29.703Z,10.63
2022-08-28T08:22:00.440Z,13.35
2022-08-28T08:24:30.297Z,10.65
2022-08-28T08:27:01.242Z,10.90
2022-08-28T08:29:32.625Z,8.85
2022-08-28T08:32:07.984Z,9.90
2022-08-28T08:37:06.714Z,9.77
2022-08-28T08:39:36.510Z,12.90
2022-08-28T08:42:09.329Z,9.88
2022-08-28T08:44:48.116Z,13.57
2022-08-28T08:47:49.378Z,15.18
2022-08-28T08:50:31.405Z,20.20
2022-08-28T08:53:13.435Z,17.27
2022-08-28T08:55:52.253Z,18.77
2022-08-28T08:58:32.835Z,19.42
2022-08-28T09:01:32.966Z,15.60
2022-08-28T09:04:56.691Z,18.35
2022-08-28T09:07:53.286Z,19.40
2022-08-28T09:10:20.693Z,17.05
2022-08-28T09:13:06.330Z,21.45
2022-08-28T09:15:42.678Z,16.77
2022-08-28T09:18:28.554Z,18.10
2022-08-28T09:20:59.968Z,21.20
2022-08-28T09:23:30.030Z,17.75
2022-08-28T09:26:12.566Z,21.63
2022-08-28T09:28:44.742Z,24.48
2022-08-28T09:31:31.675Z,24.98
2022-08-28T09:34:17.079Z,21.63
2022-08-28T09:36:44.364Z,21.38
2022-08-28T09:39:22.010Z,23.95
2022-08-28T09:42:32.561Z,20.33
2022-08-28T09:45:09.087Z,21.73
2022-08-28T09:47:54.656Z,20.25
2022-08-28T09:50:42.481Z,22.80
2022-08-28T09:53:09.408Z,23.17
2022-08-28T09:56:11.040Z,21.42
2022-08-28T09:59:04.913Z,16.15
2022-08-28T10:01:50.171Z,17.70
2022-08-28T10:04:23.279Z,15.68
2022-08-28T10:07:31.159Z,14.35
2022-08-28T10:10:10.063Z,12.82
2022-08-28T10:13:01.584Z,15.15
2022-08-28T10:15:46.608Z,14.43
2022-08-28T10:18:40.422Z,13.93
2022-08-28T10:21:50.752Z,15.18
2022-08-28T10:24:45.749Z,12.63
2022-08-28T10:27:45.076Z,15.05
2022-08-28T10:30:20.807Z,13.90
2022-08-28T10:33:16.672Z,15.80
2022-08-28T10:36:23.155Z,13.15
2022-08-28T10:39:19.382Z,19.42
2022-08-28T10:41:56.707Z,14.33
2022-08-28T10:44:49.770Z,17.15
2022-08-28T10:47:22.068Z,14.93
2022-08-28T10:49:55.043Z,4.72
2022-08-28T10:52:42.039Z,7.32
2022-08-28T10:55:25.372Z,16.45
2022-08-28T10:58:06.201Z,5.97
2022-08-28T11:00:57.126Z,5.93
2022-08-28T11:03:34.768Z,4.05
2022-08-28T11:06:31.394Z,6.07
2022-08-28T11:09:26.282Z,7.63
2022-08-28T11:12:03.060Z,7.05
2022-08-28T11:14:47.593Z,6.82
2022-08-28T11:17:25.429Z,7.95
2022-08-28T11:20:27.102Z,9.98
2022-08-28T11:23:20.842Z,6.18
2022-08-28T11:25:55.024Z,6.93
2022-08-28T11:28:25.831Z,6.45
2022-08-28T11:30:58.960Z,7.10
2022-08-28T11:33:49.783Z,5.75
2022-08-28T11:36:19.974Z,7.00
2022-08-28T11:38:56.168Z,10.95
2022-08-28T11:41:32.083Z,8.32
2022-08-28T11:46:47.572Z,5.70
2022-08-28T11:49:26.771Z,6.75
2022-08-28T11:52:34.086Z,7.25
2022-08-28T11:55:07.019Z,7.00
2022-08-28T11:58:37.598Z,7.97
2022-08-28T12:01:11.898Z,6.50
2022-08-28T12:04:03.860Z,6.40
2022-08-28T12:07:13.111Z,8.02
2022-08-28T12:09:49.851Z,6.18
2022-08-28T12:12:23.188Z,4.88
2022-08-28T12:14:56.310Z,4.38
2022-08-28T12:17:23.973Z,6.30
2022-08-28T12:20:31.092Z,5.40
2022-08-28T12:23:03.029Z,8.18
2022-08-28T12:25:42.346Z,8.23
2022-08-28T12:29:01.504Z,7.15
2022-08-28T12:32:11.665Z,7.90
2022-08-28T12:34:57.348Z,7.18
2022-08-28T12:37:51.561Z,9.32
2022-08-28T12:40:37.894Z,9.02
2022-08-28T12:43:15.472Z,8.00
2022-08-28T12:45:49.971Z,7.43
2022-08-28T12:48:25.919Z,6.72
2022-08-28T12:51:03.371Z,8.32
2022-08-28T12:53:53.380Z,7.10
2022-08-28T12:56:24.269Z,7.32
2022-08-28T12:58:54.807Z,5.72
2022-08-28T13:01:32.935Z,8.80
2022-08-28T13:04:26.341Z,12.48
2022-08-28T13:07:11.643Z,5.25
2022-08-28T13:09:51.499Z,6.18
2022-08-28T13:12:44.106Z,5.65
2022-08-28T13:16:09.331Z,4.82
2022-08-28T13:18:55.367Z,6.10
2022-08-28T13:21:34.433Z,5.30
2022-08-28T13:24:22.295Z,7.03
2022-08-28T13:27:09.571Z,6.63
2022-08-28T13:30:20.028Z,5.85
2022-08-28T13:33:04.793Z,5.88
2022-08-28T13:35:37.387Z,5.63
2022-08-28T13:38:12.507Z,7.03
2022-08-28T13:41:02.562Z,5.50
2022-08-28T13:43:45.974Z,7.60
2022-08-28T13:46:13.965Z,5.35
2022-08-28T13:48:41.206Z,6.13
2022-08-28T13:51:18.910Z,5.38
2022-08-28T13:53:49.705Z,8.10
2022-08-28T13:56:17.826Z,9.00
2022-08-28T13:58:44.909Z,8.25
2022-08-28T14:01:43.916Z,6.65
2022-08-28T14:04:13.120Z,6.18
2022-08-28T14:06:44.088Z,5.00
2022-08-28T14:09:17.720Z,8.02
2022-08-28T14:11:47.047Z,7.03
2022-08-28T14:14:14.698Z,7.18
2022-08-28T14:16:42.644Z,6.55
2022-08-28T14:19:10.499Z,6.53
2022-08-28T14:21:40.921Z,5.82
2022-08-28T14:24:08.799Z,7.97
2022-08-28T14:26:36.459Z,7.43
2022-08-28T14:29:10.542Z,6.05
2022-08-28T14:31:40.902Z,9.85
2022-08-28T14:34:15.031Z,7.10
2022-08-28T14:36:45.918Z,7.82
2022-08-28T14:39:13.807Z,4.93
2022-08-28T14:41:47.016Z,7.50
2022-08-28T14:44:15.343Z,6.07
2022-08-28T14:46:46.850Z,10.20
2022-08-28T14:49:21.877Z,6.20
2022-08-28T14:51:49.980Z,27.67
2022-08-28T14:54:23.371Z,10.18
2022-08-28T14:56:52.160Z,7.00
2022-08-28T14:59:29.406Z,8.65
2022-08-28T15:02:00.048Z,6.80
2022-08-28T15:04:37.922Z,7.40
2022-08-28T15:07:10.991Z,12.75
2022-08-28T15:09:41.483Z,9.27
2022-08-28T15:12:12.149Z,7.95
2022-08-28T15:14:39.447Z,11.05
2022-08-28T15:17:08.417Z,12.10
2022-08-28T15:19:38.942Z,9.25
2022-08-28T15:22:06.108Z,8.07
2022-08-28T15:24:34.628Z,8.32
2022-08-28T15:27:02.412Z,13.15
2022-08-28T15:29:30.225Z,7.50
2022-08-28T15:31:58.777Z,7.35
2022-08-28T15:34:28.453Z,7.65
2022-08-28T15:36:58.083Z,7.95
2022-08-28T15:39:46.542Z,8.27
2022-08-28T15:42:14.476Z,8.43
2022-08-28T15:44:42.472Z,7.03
2022-08-28T15:47:15.351Z,7.20
2022-08-28T15:49:48.627Z,9.05
2022-08-28T15:52:18.722Z,8.15
2022-08-28T15:54:46.355Z,6.13
2022-08-28T15:57:13.431Z,10.07
2022-08-28T15:59:49.516Z,10.82
2022-08-28T16:02:21.441Z,6.32
2022-08-28T16:04:49.116Z,5.75
2022-08-28T16:07:17.934Z,5.43
2022-08-28T16:09:45.189Z,4.50
2022-08-28T16:12:12.496Z,6.20
2022-08-28T16:14:39.644Z,7.80
2022-08-28T16:17:11.025Z,6.30
2022-08-28T16:19:42.730Z,7.83
2022-08-28T16:22:12.479Z,6.55
2022-08-28T16:24:39.664Z,8.35
2022-08-28T16:27:09.667Z,12.73
2022-08-28T16:29:40.549Z,8.23
2022-08-28T16:32:07.946Z,6.05
2022-08-28T16:34:36.944Z,8.15
2022-08-28T16:37:04.533Z,10.40
2022-08-28T16:39:31.751Z,18.45
2022-08-28T16:41:59.075Z,6.18
2022-08-28T16:44:26.735Z,9.52
2022-08-28T16:46:57.005Z,7.10
2022-08-28T16:49:27.660Z,7.35
2022-08-28T16:51:58.327Z,6.10
2022-08-28T16:54:29.475Z,5.82
2022-08-28T16:56:59.823Z,12.77
2022-08-28T16:59:30.235Z,4.90
2022-08-28T17:01:58.040Z,9.13
2022-08-28T17:04:25.770Z,3.97
2022-08-28T17:06:52.944Z,3.60
2022-08-28T17:09:22.722Z,3.00
2022-08-28T17:11:52.244Z,2.50
2022-08-28T17:14:23.665Z,2.05
2022-08-28T17:16:51.764Z,2.72
2022-08-28T17:19:20.880Z,2.70
2022-08-28T17:22:06.288Z,6.70
2022-08-28T17:24:33.426Z,5.05
2022-08-28T17:27:05.415Z,5.93
2022-08-28T17:29:35.205Z,2.33
2022-08-28T17:32:07.914Z,3.70
2022-08-28T17:34:36.135Z,4.43
2022-08-28T17:37:04.417Z,5.93
2022-08-28T17:39:31.865Z,3.63
2022-08-28T17:42:00.158Z,6.07
2022-08-28T17:44:27.544Z,2.72
2022-08-28T17:46:55.029Z,5.13
2022-08-28T17:49:23.185Z,3.65
2022-08-28T17:51:51.182Z,3.17
2022-08-28T17:54:21.939Z,6.45
2022-08-28T17:56:49.840Z,3.30
2022-08-28T17:59:18.824Z,5.72
2022-08-28T18:01:47.602Z,4.65
2022-08-28T18:04:23.930Z,6.13
2022-08-28T18:06:54.937Z,4.70
2022-08-28T18:09:24.398Z,3.20
2022-08-28T18:11:53.275Z,9.05
2022-08-28T18:14:21.822Z,4.97
2022-08-28T18:16:49.477Z,2.95
2022-08-28T18:19:17.063Z,5.43
2022-08-28T18:21:45.330Z,3.67
2022-08-28T18:24:13.418Z,6.68
2022-08-28T18:26:43.015Z,7.20
2022-08-28T18:29:11.364Z,3.97
2022-08-28T18:31:38.933Z,5.40
2022-08-28T18:34:11.215Z,4.45
2022-08-28T18:36:41.780Z,5.35
2022-08-28T18:39:13.213Z,7.40
2022-08-28T18:41:44.436Z,4.70
2022-08-28T18:44:14.821Z,8.07
2022-08-28T18:46:45.545Z,4.50
2022-08-28T18:49:16.386Z,3.22
2022-08-28T18:51:45.341Z,5.07
2022-08-28T18:54:17.364Z,3.35
2022-08-28T18:56:51.580Z,4.80
2022-08-28T18:59:20.097Z,3.55
2022-08-28T19:01:47.648Z,4.00
2022-08-28T19:04:15.503Z,3.47
2022-08-28T19:06:43.067Z,4.35
2022-08-28T19:09:20.195Z,3.47
2022-08-28T19:11:49.065Z,3.25
2022-08-28T19:14:23.562Z,6.10
2022-08-28T19:16:51.117Z,4.60
2022-08-28T19:19:18.693Z,2.78
2022-08-28T19:21:46.446Z,3.88
2022-08-28T19:24:17.953Z,9.43
2022-08-28T19:26:46.557Z,6.30
2022-08-28T19:29:15.370Z,7.63
2022-08-28T19:31:46.883Z,6.25
2022-08-28T19:34:14.731Z,5.32
2022-08-28T19:36:42.352Z,5.15
2022-08-28T19:39:10.070Z,5.05
2022-08-28T19:41:38.143Z,7.75
2022-08-28T19:44:07.108Z,7.18
2022-08-28T19:46:38.203Z,5.38
2022-08-28T19:49:07.837Z,5.63
2022-08-28T19:51:40.240Z,8.18
2022-08-28T19:54:14.541Z,8.43
2022-08-28T19:56:42.382Z,5.78
2022-08-28T19:59:10.898Z,5.20
2022-08-28T20:01:42.012Z,4.10
2022-08-28T20:04:13.678Z,4.20
2022-08-28T20:06:41.450Z,4.80
2022-08-28T20:09:12.703Z,4.75
2022-08-28T20:11:42.566Z,5.72
2022-08-28T20:14:10.034Z,3.65
2022-08-28T20:16:44.910Z,5.40
2022-08-28T20:19:16.187Z,6.95
2022-08-28T20:21:46.340Z,5.18
2022-08-28T20:24:20.465Z,5.50
2022-08-28T20:26:52.367Z,5.10
2022-08-28T20:29:24.270Z,4.57
2022-08-28T20:31:58.003Z,5.32
2022-08-28T20:34:29.102Z,8.40
2022-08-28T20:36:56.291Z,5.60
2022-08-28T20:39:23.517Z,7.10
2022-08-28T20:41:53.486Z,7.30
2022-08-28T20:44:22.818Z,10.05
2022-08-28T20:46:51.412Z,8.23
2022-08-28T20:49:22.118Z,6.93
2022-08-28T20:51:52.863Z,8.98
2022-08-28T20:54:37.310Z,5.78
2022-08-28T20:57:09.290Z,7.53
2022-08-28T20:59:40.412Z,5.18
2022-08-28T21:02:18.743Z,5.93
2022-08-28T21:04:46.972Z,7.38
2022-08-28T21:07:20.336Z,4.78
2022-08-28T21:10:07.065Z,5.47
2022-08-28T21:12:40.024Z,7.97
2022-08-28T21:17:41.150Z,6.15
2022-08-28T21:20:13.368Z,10.98
2022-08-28T21:22:41.567Z,10.00
2022-08-28T21:25:11.056Z,7.93
2022-08-28T21:27:38.843Z,5.32
2022-08-28T21:30:08.768Z,8.55
2022-08-28T21:32:38.919Z,7.13
2022-08-28T21:35:12.854Z,9.88
2022-08-28T21:37:42.047Z,8.90
2022-08-28T21:40:13.015Z,12.82
2022-08-28T21:42:41.018Z,5.50
2022-08-28T21:45:12.553Z,5.47
2022-08-28T21:47:41.554Z,8.68
2022-08-28T21:50:10.818Z,16.52
2022-08-28T21:52:38.464Z,8.68
2022-08-28T21:55:11.176Z,7.55
2022-08-28T21:57:38.903Z,5.35
2022-08-28T22:00:19.768Z,14.85
2022-08-28T22:02:47.766Z,8.60
2022-08-28T22:05:18.380Z,5.10
2022-08-28T22:07:46.130Z,9.20
2022-08-28T22:10:17.928Z,8.55
2022-08-28T22:12:45.116Z,8.35
2022-08-28T22:15:18.811Z,10.73
2022-08-28T22:17:45.934Z,13.30
2022-08-28T22:20:16.366Z,9.45
2022-08-28T22:23:02.073Z,7.88
2022-08-28T22:25:29.573Z,9.27
2022-08-28T22:27:56.738Z,9.32
2022-08-28T22:30:24.171Z,9.80
2022-08-28T22:32:51.424Z,8.07
2022-08-28T22:35:19.715Z,10.85
2022-08-28T22:37:51.383Z,12.32
2022-08-28T22:40:22.812Z,5.80
2022-08-28T22:42:50.988Z,8.25
2022-08-28T22:45:19.320Z,7.53
2022-08-28T22:47:49.714Z,10.05
2022-08-28T22:50:20.523Z,7.60
2022-08-28T22:52:49.722Z,7.85
2022-08-28T22:55:21.704Z,10.77
2022-08-28T22:57:49.146Z,12.38
2022-08-28T23:00:21.521Z,5.75
2022-08-28T23:02:48.849Z,9.02
2022-08-28T23:05:16.593Z,11.38
2022-08-28T23:07:44.227Z,19.90
2022-08-28T23:10:13.085Z,9.65
2022-08-28T23:12:40.635Z,10.20
2022-08-28T23:15:15.555Z,12.70
2022-08-28T23:17:43.729Z,10.02
2022-08-28T23:20:16.821Z,9.38
2022-08-28T23:22:45.561Z,12.43
2022-08-28T23:25:21.576Z,9.95
2022-08-28T23:27:49.786Z,8.27
2022-08-28T23:30:18.917Z,11.70
2022-08-28T23:32:46.716Z,11.68
2022-08-28T23:35:15.452Z,11.10
2022-08-28T23:37:46.772Z,8.32
2022-08-28T23:40:22.950Z,11.82
2022-08-28T23:42:51.820Z,10.32
2022-08-28T23:45:22.987Z,8.07
2022-08-28T23:47:53.578Z,10.95
2022-08-28T23:50:24.863Z,8.13
2022-08-28T23:52:52.361Z,10.55
2022-08-28T23:55:20.968Z,10.20
2022-08-28T23:57:52.262Z,12.05
